Time;durP1;ratioP1;P1;durP2;ratioP2;P2;SDS_P1;SDS_P2;PMS_P1;PMS_P2;Temp;Humidity;BMP_temperature;BMP_pressure;BME280_temperature;BME280_humidity;BME280_pressure;Samples;Min_cycle;Max_cycle;Signal;HPM_P1;HPM_P2
2023/06/08 00:02:19;;;;;;;11.70;8.38;;;;;;;-144.47;100.00;52711.09;5015588;28;20029;-71
2023/06/08 00:04:45;;;;;;;12.35;8.50;;;;;;;-144.47;99.94;52707.13;5012858;28;20036;-70
2023/06/08 00:07:14;;;;;;;17.30;8.88;;;;;;;-144.47;100.00;52689.25;5010626;28;20014;-67
2023/06/08 00:09:40;;;;;;;11.35;8.98;;;;;;;-144.47;100.00;52744.88;5011875;28;20045;-71
2023/06/08 00:12:07;;;;;;;14.88;9.15;;;;;;;-144.47;100.00;52703.16;5009639;28;20117;-70
2023/06/08 00:14:35;;;;;;;13.20;8.52;;;;;;;-144.47;100.00;52685.28;5011080;28;20125;-71
2023/06/08 00:17:04;;;;;;;15.18;9.45;;;;;;;-144.47;100.00;52691.25;5002355;28;20030;-70
2023/06/08 00:19:31;;;;;;;19.55;8.95;;;;;;;-144.47;100.00;52699.19;5010158;28;20165;-71
2023/06/08 00:21:58;;;;;;;15.10;9.50;;;;;;;-144.47;100.00;52683.31;5009636;28;20101;-69
2023/06/08 00:24:24;;;;;;;13.77;8.40;;;;;;;-144.47;100.00;52693.22;5009861;28;20033;-72
2023/06/08 00:26:49;;;;;;;18.75;8.82;;;;;;;-144.47;100.00;52703.16;5009442;28;20105;-70
2023/06/08 00:29:15;;;;;;;11.25;7.72;;;;;;;-144.47;100.00;52667.41;5011794;28;20101;-70
2023/06/08 00:31:40;;;;;;;14.68;9.77;;;;;;;-144.47;100.00;52683.31;5011640;28;20121;-70
2023/06/08 00:34:06;;;;;;;19.08;12.63;;;;;;;-144.47;100.00;52695.22;5010400;28;20032;-70
2023/06/08 00:36:31;;;;;;;15.68;10.82;;;;;;;-144.47;100.00;52709.13;5011249;28;20783;-69
2023/06/08 00:38:57;;;;;;;13.73;10.63;;;;;;;-144.47;100.00;52709.13;5011411;28;20284;-67
2023/06/08 00:41:22;;;;;;;17.23;11.35;;;;;;;-144.47;100.00;52707.13;5011089;28;20037;-72
2023/06/08 00:43:48;;;;;;;15.98;10.02;;;;;;;-144.47;100.00;52697.19;5010118;28;20115;-71
2023/06/08 00:46:14;;;;;;;15.40;10.48;;;;;;;-144.47;100.00;52709.13;5011412;28;20113;-72
2023/06/08 00:48:40;;;;;;;15.98;10.52;;;;;;;-144.47;100.00;52697.19;5011584;28;20505;-69
2023/06/08 00:51:07;;;;;;;14.63;11.20;;;;;;;-144.47;100.00;52673.38;5009082;28;20131;-71
2023/06/08 00:53:35;;;;;;;15.00;11.05;;;;;;;-144.47;100.00;52695.22;5010323;28;20042;-71
2023/06/08 00:56:01;;;;;;;14.30;11.52;;;;;;;-144.47;100.00;52721.03;5010699;28;20026;-69
2023/06/08 00:58:28;;;;;;;17.23;11.68;;;;;;;-144.47;100.00;52699.19;5011080;28;20065;-69
2023/06/08 01:00:59;;;;;;;16.88;12.18;;;;;;;-144.47;100.00;52687.28;5010871;28;20513;-70
2023/06/08 01:03:33;;;;;;;13.80;11.45;;;;;;;-144.47;100.00;52695.22;5010438;28;20179;-69
2023/06/08 01:06:00;;;;;;;14.75;11.90;;;;;;;-144.47;100.00;52742.88;5008230;28;20030;-69
2023/06/08 01:09:01;;;;;;;17.25;11.65;;;;;;;-144.47;100.00;52707.13;5010976;28;20062;-70
2023/06/08 01:11:54;;;;;;;17.05;11.70;;;;;;;-144.47;100.00;52719.06;4991584;28;20029;-70
2023/06/08 01:14:44;;;;;;;16.48;11.80;;;;;;;-144.47;100.00;52673.38;5008856;28;20655;-70
2023/06/08 01:17:14;;;;;;;21.25;12.98;;;;;;;-144.47;100.00;52725.00;5010718;28;20041;-70
2023/06/08 01:20:11;;;;;;;16.52;12.27;;;;;;;-144.47;100.00;52695.22;5008575;28;20506;-70
2023/06/08 01:23:10;;;;;;;17.92;13.35;;;;;;;-144.47;100.00;52723.03;5010317;28;20044;-71
2023/06/08 01:25:36;;;;;;;22.27;13.27;;;;;;;-144.47;100.00;52719.06;5009784;28;20044;-70
2023/06/08 01:28:13;;;;;;;19.88;12.98;;;;;;;-144.47;100.00;52717.06;5010053;28;20566;-69
2023/06/08 01:30:40;;;;;;;15.63;12.60;;;;;;;-144.47;100.00;52701.19;5009306;28;20069;-72
2023/06/08 01:33:05;;;;;;;27.27;14.95;;;;;;;-144.47;100.00;52721.03;5008473;28;20579;-69
2023/06/08 01:35:31;;;;;;;17.08;13.23;;;;;;;-144.47;100.00;52695.22;5009527;28;20104;-70
2023/06/08 01:38:02;;;;;;;15.98;12.35;;;;;;;-144.47;100.00;52705.16;5010122;28;20033;-71
2023/06/08 01:40:37;;;;;;;28.45;14.23;;;;;;;-144.47;100.00;52687.28;5010479;28;20030;-70
2023/06/08 01:43:08;;;;;;;17.63;11.77;;;;;;;-144.47;100.00;52721.03;5010486;28;20026;-70
2023/06/08 01:45:38;;;;;;;19.45;13.93;;;;;;;-144.47;100.00;52717.06;5010113;28;20029;-68
2023/06/08 01:48:07;;;;;;;18.17;13.50;;;;;;;-144.47;100.00;52713.09;5009908;28;20545;-70
2023/06/08 01:50:34;;;;;;;21.88;13.27;;;;;;;-144.47;100.00;52683.31;5009773;28;20038;-68
2023/06/08 01:53:00;;;;;;;17.20;13.38;;;;;;;-144.47;100.00;52711.09;5009990;28;20109;-71
2023/06/08 01:55:27;;;;;;;26.10;14.48;;;;;;;-144.47;100.00;52709.13;5008989;28;20100;-68
2023/06/08 01:57:53;;;;;;;22.80;15.20;;;;;;;-144.47;100.00;52687.28;5009857;28;20511;-69
2023/06/08 02:00:20;;;;;;;20.15;13.65;;;;;;;-144.47;100.00;52705.16;5010477;28;20029;-68
2023/06/08 02:02:46;;;;;;;16.88;12.23;;;;;;;-144.47;100.00;52709.13;5009906;28;20026;-68
2023/06/08 02:05:13;;;;;;;19.75;14.85;;;;;;;-144.47;100.00;52699.19;5007342;28;20034;-70
2023/06/08 02:07:40;;;;;;;21.75;14.00;;;;;;;-144.47;100.00;52719.06;5009723;28;20487;-70
2023/06/08 02:10:07;;;;;;;22.30;14.93;;;;;;;-144.47;100.00;52701.19;5008598;28;20487;-66
2023/06/08 02:12:33;;;;;;;20.40;14.73;;;;;;;-144.47;100.00;52732.94;4999948;28;20017;-71
2023/06/08 02:14:59;;;;;;;28.52;15.05;;;;;;;-144.47;100.00;52693.22;5009077;28;20105;-70
2023/06/08 02:17:26;;;;;;;20.20;15.02;;;;;;;-144.47;100.00;52709.13;5008272;28;20026;-69
2023/06/08 02:19:53;;;;;;;18.15;15.35;;;;;;;-144.47;100.00;52707.13;5007107;28;20116;-69
2023/06/08 02:22:20;;;;;;;20.83;15.52;;;;;;;-144.47;100.00;52721.03;5009238;28;20296;-71
2023/06/08 02:24:46;;;;;;;20.38;15.68;;;;;;;-144.47;100.00;52730.97;5008771;28;20032;-69
2023/06/08 02:27:13;;;;;;;20.52;14.05;;;;;;;-144.47;100.00;52721.03;5009682;28;20438;-69
2023/06/08 02:29:39;;;;;;;22.08;14.48;;;;;;;-144.47;100.00;52723.03;5009495;28;20121;-69
2023/06/08 02:32:08;;;;;;;23.60;14.60;;;;;;;-144.47;100.00;52711.09;5008406;28;20029;-68
2023/06/08 02:34:37;;;;;;;;;;;;;;;-144.47;100.00;52715.06;5008356;28;20026;-70
2023/06/08 02:37:02;;;;;;;;;;;;;;;-144.47;100.00;52725.00;5009586;28;19913;-70
2023/06/08 02:39:28;;;;;;;18.23;12.95;;;;;;;-144.47;100.00;52709.13;5009440;28;20290;-69
2023/06/08 02:41:53;;;;;;;22.98;14.27;;;;;;;-144.47;100.00;52709.13;5007989;28;20108;-71
2023/06/08 02:44:18;;;;;;;19.38;13.20;;;;;;;-144.47;100.00;52732.94;5008900;28;20049;-69
2023/06/08 02:46:45;;;;;;;21.35;15.32;;;;;;;-144.47;100.00;52719.06;5010132;28;20498;-70
2023/06/08 02:49:10;;;;;;;22.50;14.85;;;;;;;-144.47;100.00;52725.00;5013560;28;20145;-69
2023/06/08 02:51:36;;;;;;;18.92;14.07;;;;;;;-144.47;100.00;52725.00;5013116;28;20279;-70
2023/06/08 02:54:02;;;;;;;23.33;15.43;;;;;;;-144.47;100.00;52683.31;5012551;28;20018;-68
2023/06/08 02:56:28;;;;;;;20.60;15.10;;;;;;;-144.47;100.00;52685.28;5012795;28;20034;-70
2023/06/08 02:58:54;;;;;;;21.05;14.57;;;;;;;-144.47;100.00;52717.06;5013474;28;20022;-70
2023/06/08 03:01:20;;;;;;;21.90;14.85;;;;;;;-144.47;100.00;52715.06;5013022;28;20034;-68
2023/06/08 03:03:46;;;;;;;22.73;16.38;;;;;;;-144.47;100.00;52711.09;5012566;28;20068;-71
2023/06/08 03:06:17;;;;;;;26.85;16.50;;;;;;;-144.47;100.00;52713.09;5012314;28;20025;-70
2023/06/08 03:08:53;;;;;;;18.42;15.32;;;;;;;-144.47;100.00;52727.00;5012512;28;20105;-71
2023/06/08 03:11:22;;;;;;;22.38;16.05;;;;;;;-144.47;100.00;52719.06;5002521;28;20037;-70
2023/06/08 03:13:48;;;;;;;;;;;;;;;-144.47;100.00;52713.09;5011642;28;20029;-71
2023/06/08 03:16:14;;;;;;;20.05;15.68;;;;;;;-144.47;100.00;52705.16;5012777;28;19920;-71
2023/06/08 03:18:40;;;;;;;23.35;17.08;;;;;;;-144.47;100.00;52707.13;5013032;28;20560;-70
2023/06/08 03:21:07;;;;;;;25.40;17.77;;;;;;;-144.47;100.00;52721.03;5011133;28;20029;-70
2023/06/08 03:23:37;;;;;;;27.17;17.60;;;;;;;-144.47;100.00;52715.06;5011481;28;20080;-68
2023/06/08 03:26:03;;;;;;;26.73;17.85;;;;;;;-144.47;100.00;52711.09;5012216;28;20026;-69
2023/06/08 03:28:29;;;;;;;28.48;18.67;;;;;;;-144.47;100.00;52719.06;5012896;28;20033;-69
2023/06/08 03:30:54;;;;;;;28.88;20.15;;;;;;;-144.47;100.00;52711.09;5012660;28;20028;-69
2023/06/08 03:33:20;;;;;;;23.23;18.15;;;;;;;-144.47;100.00;52725.00;5012399;28;20117;-69
2023/06/08 03:35:46;;;;;;;26.27;19.23;;;;;;;-144.47;100.00;52732.94;5011645;28;20053;-72
2023/06/08 03:38:12;;;;;;;22.02;18.05;;;;;;;-144.47;100.00;52693.22;5012809;28;20053;-69
2023/06/08 03:40:37;;;;;;;24.00;17.73;;;;;;;-144.47;100.00;52719.06;5012129;28;20117;-69
2023/06/08 03:43:02;;;;;;;24.27;16.52;;;;;;;-144.47;100.00;52709.13;5012170;28;20037;-68
2023/06/08 03:45:28;;;;;;;31.40;15.75;;;;;;;-144.47;100.00;52730.97;5011131;28;20042;-71
2023/06/08 03:47:55;;;;;;;26.50;17.13;;;;;;;-144.47;100.00;52709.13;5012483;28;20480;-70
2023/06/08 03:50:20;;;;;;;23.25;16.10;;;;;;;-144.47;100.00;52719.06;5011208;28;20032;-71
2023/06/08 03:52:46;;;;;;;16.67;13.95;;;;;;;-144.47;100.00;52727.00;5011665;28;20026;-71
2023/06/08 03:55:16;;;;;;;29.95;15.90;;;;;;;-144.47;100.00;52705.16;5011490;28;20044;-72
2023/06/08 03:57:42;;;;;;;22.95;15.23;;;;;;;-144.47;100.00;52681.31;5011006;28;20109;-69
2023/06/08 04:00:11;;;;;;;27.35;15.55;;;;;;;-144.47;100.00;52705.16;5010950;28;20149;-71
2023/06/08 04:02:37;;;;;;;;;;;;;;;-144.47;100.00;52721.03;5012619;28;20099;-69
2023/06/08 04:05:02;;;;;;;23.98;13.85;;;;;;;-144.47;100.00;52730.97;5009947;28;19921;-70
2023/06/08 04:07:28;;;;;;;25.10;15.27;;;;;;;-144.47;100.00;52719.06;5011757;28;20045;-72
2023/06/08 04:09:53;;;;;;;19.13;14.77;;;;;;;-144.47;100.00;52703.16;5012041;28;20022;-69
2023/06/08 04:12:19;;;;;;;20.40;14.18;;;;;;;-144.47;100.00;52695.22;5000527;28;20026;-69
2023/06/08 04:14:45;;;;;;;25.45;15.93;;;;;;;-144.47;100.00;52728.97;5010953;28;20475;-72
2023/06/08 04:17:12;;;;;;;25.23;15.02;;;;;;;-144.47;100.00;52740.91;5012544;28;20030;-70
2023/06/08 04:19:38;;;;;;;22.10;14.40;;;;;;;-144.47;100.00;52715.06;5007641;28;20049;-71
2023/06/08 04:22:04;;;;;;;19.77;14.85;;;;;;;-144.47;100.00;52707.13;5016745;28;20022;-67
2023/06/08 04:24:30;;;;;;;23.70;14.98;;;;;;;-144.47;100.00;52713.09;5011647;28;20017;-70
2023/06/08 04:26:56;;;;;;;29.02;16.02;;;;;;;-144.47;100.00;52709.13;5012015;28;20022;-72
2023/06/08 04:29:21;;;;;;;31.02;16.38;;;;;;;-144.47;100.00;52736.94;5010633;28;20628;-72
2023/06/08 04:31:47;;;;;;;25.20;14.63;;;;;;;-144.47;100.00;52721.03;5012024;28;20026;-68
2023/06/08 04:34:12;;;;;;;24.65;15.27;;;;;;;-144.47;100.00;52717.06;5001884;23;20054;-71
2023/06/08 04:36:42;;;;;;;23.42;16.20;;;;;;;-144.47;100.00;52711.09;4984438;28;20580;-72
2023/06/08 04:39:08;;;;;;;21.27;15.63;;;;;;;-144.47;100.00;52717.06;4987775;28;20056;-72
2023/06/08 04:41:34;;;;;;;22.20;14.93;;;;;;;-144.47;100.00;52693.22;4969968;28;20033;-74
2023/06/08 04:44:01;;;;;;;24.73;15.13;;;;;;;-144.47;100.00;52719.06;4973587;28;20086;-71
2023/06/08 04:46:30;;;;;;;19.88;14.70;;;;;;;-144.47;100.00;52705.16;4977632;28;20034;-72
2023/06/08 04:48:56;;;;;;;18.63;14.93;;;;;;;-144.47;100.00;52685.28;4980650;28;20061;-74
2023/06/08 04:51:29;;;;;;;21.73;14.35;;;;;;;-144.47;100.00;52715.06;4976648;28;20053;-72
2023/06/08 04:53:55;;;;;;;22.02;14.60;;;;;;;-144.47;100.00;52699.19;4952813;28;20031;-72
2023/06/08 04:56:20;;;;;;;18.25;13.40;;;;;;;-144.47;100.00;52707.13;4964992;28;20712;-69
2023/06/08 04:58:46;;;;;;;19.60;14.35;;;;;;;-144.47;100.00;52715.06;4971736;28;20461;-72
2023/06/08 05:01:11;;;;;;;24.50;14.55;;;;;;;-144.47;100.00;52699.19;4977668;28;20272;-72
2023/06/08 05:03:37;;;;;;;19.60;15.20;;;;;;;-144.47;100.00;52715.06;4970402;28;20158;-73
2023/06/08 05:06:02;;;;;;;23.77;14.65;;;;;;;-144.47;100.00;52727.00;4967991;28;20101;-70
2023/06/08 05:08:28;;;;;;;21.88;13.57;;;;;;;-144.47;100.00;52711.09;4971365;28;20038;-70
2023/06/08 05:10:53;;;;;;;18.13;13.38;;;;;;;-144.47;100.00;52721.03;4975472;28;20169;-72
2023/06/08 05:13:18;;;;;;;20.90;15.00;;;;;;;-144.47;100.00;52707.13;4976192;28;20105;-72
2023/06/08 05:15:44;;;;;;;19.30;14.02;;;;;;;-144.47;100.00;52717.06;4971322;28;20142;-70
2023/06/08 05:18:09;;;;;;;16.42;12.93;;;;;;;-144.47;100.00;52732.94;4974310;28;20428;-71
2023/06/08 05:20:35;;;;;;;18.10;13.98;;;;;;;-144.47;100.00;52719.06;4963991;28;20037;-73
2023/06/08 05:23:00;;;;;;;19.27;12.93;;;;;;;-144.47;100.00;52709.13;4973881;28;20034;-71
2023/06/08 05:25:36;;;;;;;23.33;13.90;;;;;;;-144.47;100.00;52721.03;4971336;28;20108;-73
2023/06/08 05:28:02;;;;;;;26.67;15.93;;;;;;;-144.47;100.00;52703.16;4973128;28;20027;-73
2023/06/08 05:30:27;;;;;;;20.58;13.95;;;;;;;-144.47;100.00;52711.09;4973518;28;20030;-73
2023/06/08 05:32:53;;;;;;;22.50;13.75;;;;;;;-144.47;100.00;52738.91;4976493;28;20035;-72
2023/06/08 05:35:18;;;;;;;18.52;13.27;;;;;;;-144.47;100.00;52725.00;4975962;28;20057;-73
2023/06/08 05:37:43;;;;;;;20.02;14.18;;;;;;;-144.47;100.00;52730.97;4977487;28;20037;-72
2023/06/08 05:40:09;;;;;;;18.70;14.13;;;;;;;-144.47;100.00;52725.00;4975036;28;20109;-72
2023/06/08 05:42:35;;;;;;;21.52;13.85;;;;;;;-144.47;100.00;52719.06;4977992;28;20031;-72
2023/06/08 05:45:00;;;;;;;16.35;12.82;;;;;;;-144.47;100.00;52719.06;4971922;28;20042;-71
2023/06/08 05:47:25;;;;;;;19.58;12.93;;;;;;;-144.47;100.00;52709.13;4967693;28;20034;-72
2023/06/08 05:49:51;;;;;;;20.30;12.70;;;;;;;-144.47;100.00;52705.16;4962249;28;20058;-71
2023/06/08 05:52:16;;;;;;;19.85;11.85;;;;;;;-144.47;100.00;52701.19;4987100;28;20461;-72
2023/06/08 05:54:42;;;;;;;22.38;12.93;;;;;;;-144.47;100.00;52697.19;4977128;28;20027;-72
2023/06/08 05:57:07;;;;;;;20.17;12.75;;;;;;;-144.47;100.00;52689.25;4983740;28;20465;-73
2023/06/08 05:59:33;;;;;;;16.73;12.50;;;;;;;-144.47;100.00;52721.03;4972004;28;20091;-74
2023/06/08 06:01:58;;;;;;;22.27;12.30;;;;;;;-144.47;100.00;52713.09;4985039;28;20089;-74
2023/06/08 06:04:23;;;;;;;18.70;12.82;;;;;;;-144.47;100.00;52719.06;4974451;28;20050;-75
2023/06/08 06:06:49;;;;;;;35.60;13.93;;;;;;;-144.47;100.00;52725.00;4975819;28;20022;-71
2023/06/08 06:09:14;;;;;;;17.88;12.85;;;;;;;-144.47;100.00;52717.06;4991359;28;20546;-73
2023/06/08 06:11:40;;;;;;;25.40;13.77;;;;;;;-144.47;100.00;52734.94;4977596;28;20061;-72
2023/06/08 06:14:05;;;;;;;24.42;13.02;;;;;;;-144.47;100.00;52701.19;4989774;28;20559;-73
2023/06/08 06:16:31;;;;;;;26.52;13.00;;;;;;;-144.47;100.00;52705.16;4972818;28;20087;-75
2023/06/08 06:18:58;;;;;;;18.60;12.57;;;;;;;-144.47;100.00;52701.19;4976247;28;20047;-75
2023/06/08 06:21:23;;;;;;;34.90;12.68;;;;;;;-144.47;100.00;52732.94;4968100;28;20034;-74
2023/06/08 06:23:48;;;;;;;19.50;13.18;;;;;;;-144.47;100.00;52719.06;4977460;28;20402;-70
2023/06/08 06:26:14;;;;;;;22.75;13.15;;;;;;;-144.47;100.00;52711.09;4984669;28;20449;-74
2023/06/08 06:28:40;;;;;;;22.48;12.88;;;;;;;-144.47;100.00;52730.97;4985258;28;20019;-73
2023/06/08 06:31:06;;;;;;;21.27;11.88;;;;;;;-144.47;100.00;52719.06;4990132;28;20026;-73
2023/06/08 06:33:31;;;;;;;23.85;11.23;;;;;;;-144.47;100.00;52705.16;4980918;28;20031;-71
2023/06/08 06:35:57;;;;;;;25.17;11.88;;;;;;;-144.47;100.00;52703.16;4976008;28;20045;-73
2023/06/08 06:38:23;;;;;;;20.15;11.95;;;;;;;-144.47;100.00;52725.00;4981646;28;20531;-72
2023/06/08 06:40:52;;;;;;;20.48;11.60;;;;;;;-144.47;100.00;52699.19;4982105;28;20277;-70
2023/06/08 06:43:19;;;;;;;18.52;10.88;;;;;;;-144.47;100.00;52715.06;4971832;28;20033;-74
2023/06/08 06:45:50;;;;;;;18.40;10.98;;;;;;;-144.47;100.00;52701.19;4969509;28;20026;-71
2023/06/08 06:48:16;;;;;;;25.65;11.55;;;;;;;-144.47;100.00;52721.03;4970241;28;20029;-70
2023/06/08 06:50:41;;;;;;;17.95;11.60;;;;;;;-144.47;100.00;52715.06;4979397;28;20030;-70
2023/06/08 06:53:06;;;;;;;18.90;11.48;;;;;;;-144.47;100.00;52715.06;4973478;28;20033;-75
2023/06/08 06:55:34;;;;;;;21.05;13.18;;;;;;;-144.47;100.00;52697.19;4969482;28;20102;-72
2023/06/08 06:58:00;;;;;;;21.30;12.10;;;;;;;-144.47;100.00;52725.00;4981696;28;20027;-71
2023/06/08 07:00:26;;;;;;;18.17;12.07;;;;;;;-144.47;100.00;52689.25;4968820;28;20085;-73
2023/06/08 07:02:51;;;;;;;20.95;13.00;;;;;;;-144.47;100.00;52711.09;4967814;28;20065;-72
2023/06/08 07:05:17;;;;;;;19.58;12.25;;;;;;;-144.47;100.00;52705.16;4967743;28;20030;-71
2023/06/08 07:07:43;;;;;;;19.05;12.10;;;;;;;-144.47;100.00;52697.19;4967378;28;20552;-73
2023/06/08 07:10:09;;;;;;;18.10;12.18;;;;;;;-144.47;100.00;52721.03;4989194;28;20113;-73
2023/06/08 07:12:34;;;;;;;16.38;11.43;;;;;;;-144.47;100.00;52703.16;4997063;28;20405;-72
2023/06/08 07:14:59;;;;;;;18.08;11.35;;;;;;;-144.47;100.00;52736.94;4978469;28;20034;-70
2023/06/08 07:17:25;;;;;;;17.63;11.73;;;;;;;-144.47;100.00;52728.97;4969127;28;20432;-72
2023/06/08 07:19:52;;;;;;;24.60;10.63;;;;;;;-144.47;100.00;52703.16;4965222;28;20039;-73
2023/06/08 07:22:18;;;;;;;15.15;9.52;;;;;;;-144.47;100.00;52695.22;4971438;28;20085;-72
2023/06/08 07:24:44;;;;;;;17.30;8.75;;;;;;;-144.47;98.03;52705.16;4979139;28;20035;-73
2023/06/08 07:27:10;;;;;;;16.83;10.10;;;;;;;-144.47;97.64;52727.00;4962362;28;20026;-71
2023/06/08 07:29:35;;;;;;;20.42;8.98;;;;;;;-144.47;93.09;52715.06;4968687;28;20031;-72
2023/06/08 07:32:01;;;;;;;13.95;8.07;;;;;;;-144.47;92.83;52707.13;4980053;28;20041;-74
2023/06/08 07:34:27;;;;;;;13.50;7.93;;;;;;;-144.47;90.36;52681.31;4974461;28;20510;-73
2023/06/08 07:36:53;;;;;;;12.75;8.45;;;;;;;-144.47;87.59;52691.25;4970728;28;20046;-71
2023/06/08 07:39:19;;;;;;;17.52;8.25;;;;;;;-144.47;87.34;52685.28;4975281;28;20179;-70
2023/06/08 07:41:46;;;;;;;17.92;9.48;;;;;;;-144.47;85.94;52705.16;4987669;28;20337;-73
2023/06/08 07:44:11;;;;;;;20.70;9.85;;;;;;;-144.47;84.34;52711.09;4971497;28;20038;-71
2023/06/08 07:46:36;;;;;;;18.95;8.88;;;;;;;-144.47;82.95;52711.09;4971576;28;20019;-72
2023/06/08 07:49:02;;;;;;;16.08;8.80;;;;;;;-144.47;82.37;52691.25;4972393;28;20031;-72
2023/06/08 07:51:27;;;;;;;20.25;7.68;;;;;;;-144.47;80.98;52679.31;4971103;28;20421;-71
2023/06/08 07:53:53;;;;;;;15.00;7.40;;;;;;;-144.47;81.90;52713.09;4984632;28;20034;-74
2023/06/08 07:56:18;;;;;;;19.80;8.35;;;;;;;-144.47;81.10;52681.31;4972235;28;20114;-74
2023/06/08 07:58:44;;;;;;;17.33;7.82;;;;;;;-144.47;75.54;52717.06;4972082;28;20067;-72
2023/06/08 08:01:09;;;;;;;18.70;7.53;;;;;;;-144.47;76.25;52697.19;4981724;28;20041;-72
2023/06/08 08:03:38;;;;;;;12.45;6.60;;;;;;;-144.47;75.93;52717.06;4973310;28;20122;-71
2023/06/08 08:06:05;;;;;;;13.20;6.65;;;;;;;-144.47;75.11;52715.06;4971246;28;20030;-72
2023/06/08 08:08:30;;;;;;;17.67;8.98;;;;;;;-144.47;73.69;52699.19;4985930;28;20076;-72
2023/06/08 08:10:56;;;;;;;16.83;8.10;;;;;;;-144.47;72.45;52709.13;4974772;28;20105;-72
2023/06/08 08:13:21;;;;;;;12.57;6.70;;;;;;;-144.47;72.20;52715.06;4963883;28;20034;-72
2023/06/08 08:15:46;;;;;;;11.50;7.05;;;;;;;-144.47;72.24;52677.34;4958883;28;20042;-72
2023/06/08 08:18:15;;;;;;;13.07;7.72;;;;;;;-144.47;70.74;52701.19;4964148;28;20516;-71
2023/06/08 08:20:41;;;;;;;15.65;7.43;;;;;;;-144.47;69.52;52689.25;4968519;28;20049;-71
2023/06/08 08:23:07;;;;;;;12.13;6.55;;;;;;;-144.47;68.73;52717.06;4964071;28;20547;-71
2023/06/08 08:25:33;;;;;;;11.20;6.55;;;;;;;-144.47;69.20;52675.34;4969948;28;20023;-72
2023/06/08 08:27:58;;;;;;;15.32;7.28;;;;;;;-144.47;67.12;52715.06;4970090;28;20468;-72
2023/06/08 08:30:23;;;;;;;12.55;6.50;;;;;;;-144.47;66.72;52685.28;4970596;28;20078;-72
2023/06/08 08:32:49;;;;;;;10.82;6.68;;;;;;;-144.47;65.78;52701.19;4981994;28;20030;-72
2023/06/08 08:35:15;;;;;;;12.48;6.32;;;;;;;-144.47;66.01;52705.16;4969992;28;20031;-72
2023/06/08 08:37:42;;;;;;;15.65;7.47;;;;;;;-144.47;65.20;52707.13;4971157;28;20473;-72
2023/06/08 08:40:09;;;;;;;13.13;6.95;;;;;;;-144.47;64.54;52703.16;4971034;28;20038;-72
2023/06/08 08:42:41;;;;;;;16.83;7.68;;;;;;;-144.47;63.94;52736.94;4969667;28;20019;-73
2023/06/08 08:45:09;;;;;;;15.15;7.45;;;;;;;-144.47;63.30;52721.03;4969122;28;20106;-73
2023/06/08 08:47:37;;;;;;;17.05;6.72;;;;;;;-144.47;62.31;52705.16;4973050;28;20109;-72
2023/06/08 08:50:06;;;;;;;17.10;7.88;;;;;;;-144.47;61.36;52711.09;4969165;28;20030;-72
2023/06/08 08:52:33;;;;;;;;;;;;;;;-144.47;61.05;52732.94;4983065;28;20090;-72
2023/06/08 08:55:00;;;;;;;15.00;7.70;;;;;;;-144.47;62.01;52689.25;4969736;28;20319;-73
2023/06/08 08:57:30;;;;;;;13.23;6.75;;;;;;;-144.47;63.73;52725.00;4982442;28;20066;-73
2023/06/08 08:59:56;;;;;;;17.65;7.53;;;;;;;-144.47;63.24;52713.09;4970548;28;20023;-74
2023/06/08 09:02:21;;;;;;;13.15;7.25;;;;;;;-144.47;64.72;52719.06;4969330;28;20033;-71
2023/06/08 09:04:47;;;;;;;13.80;7.55;;;;;;;-144.47;64.15;52711.09;4960521;28;20523;-71
2023/06/08 09:07:18;;;;;;;14.43;7.03;;;;;;;-144.47;63.51;52701.19;4968812;28;20162;-71
2023/06/08 09:10:21;;;;;;;13.70;7.32;;;;;;;-144.47;63.18;52685.28;4969610;28;20551;-71
2023/06/08 09:12:48;;;;;;;15.45;7.50;;;;;;;-144.47;60.89;52687.28;4964361;28;20472;-71
2023/06/08 09:15:26;;;;;;;10.32;6.68;;;;;;;-144.47;60.75;52709.13;4969277;28;20398;-72
2023/06/08 09:17:53;;;;;;;19.98;7.80;;;;;;;-144.47;61.38;52705.16;4981924;28;20449;-72
2023/06/08 09:20:27;;;;;;;16.65;7.18;;;;;;;-144.47;60.27;52719.06;4967088;28;20057;-74
2023/06/08 09:22:52;;;;;;;15.05;7.55;;;;;;;-144.47;61.89;52730.97;4969202;28;20038;-73
2023/06/08 09:25:32;;;;;;;15.40;6.95;;;;;;;-144.47;63.35;52717.06;4978174;28;20042;-71
2023/06/08 09:28:18;;;;;;;15.27;7.13;;;;;;;-144.47;64.64;52728.97;4956306;28;20094;-72
2023/06/08 09:30:48;;;;;;;13.52;6.63;;;;;;;-144.47;65.81;52677.34;4982547;28;20026;-73
2023/06/08 09:33:23;;;;;;;14.13;7.07;;;;;;;-144.47;65.12;52711.09;4969483;28;20026;-70
2023/06/08 09:36:04;;;;;;;15.25;6.85;;;;;;;-144.47;67.35;52697.19;4997326;28;20027;-73
2023/06/08 09:38:32;;;;;;;14.60;8.07;;;;;;;-144.47;67.84;52734.94;4981677;28;20022;-72
2023/06/08 09:41:17;;;;;;;12.23;6.80;;;;;;;-144.47;69.48;52721.03;4973100;28;20027;-72
2023/06/08 09:43:44;;;;;;;16.42;7.72;;;;;;;-144.47;71.47;52709.13;4979944;28;20023;-73
2023/06/08 09:46:31;;;;;;;15.52;8.40;;;;;;;-144.47;70.89;52727.00;4982790;28;20026;-72
2023/06/08 09:48:56;;;;;;;12.45;7.13;;;;;;;-144.47;70.86;52699.19;4969483;28;20098;-70
2023/06/08 09:51:23;;;;;;;15.23;6.95;;;;;;;-144.47;71.39;52719.06;4966874;28;20118;-72
2023/06/08 09:53:57;;;;;;;15.15;8.07;;;;;;;-144.47;73.52;52752.81;4968716;28;20480;-74
2023/06/08 09:56:25;;;;;;;16.45;7.63;;;;;;;-144.47;71.65;52703.16;4977303;28;20057;-73
2023/06/08 09:58:54;;;;;;;25.50;8.30;;;;;;;-144.47;71.55;52715.06;4973734;28;20034;-72
2023/06/08 10:01:28;;;;;;;13.25;7.22;;;;;;;-144.47;69.51;52711.09;4970262;28;20106;-72
2023/06/08 10:03:59;;;;;;;12.85;6.70;;;;;;;-144.47;69.85;52730.97;4965510;28;20113;-72
2023/06/08 10:06:26;;;;;;;13.32;7.68;;;;;;;-144.47;70.17;52727.00;4969251;28;20034;-73
2023/06/08 10:08:55;;;;;;;14.30;7.25;;;;;;;-144.47;70.09;52685.28;4969028;28;20037;-72
2023/06/08 10:11:21;;;;;;;12.57;7.00;;;;;;;-144.47;69.98;52725.00;4968027;28;20038;-71
2023/06/08 10:13:47;;;;;;;13.70;6.32;;;;;;;-144.47;69.87;52697.19;4980785;28;20485;-71
2023/06/08 10:16:12;;;;;;;10.60;6.43;;;;;;;-144.47;70.26;52721.03;4979174;28;20098;-73
2023/06/08 10:18:38;;;;;;;16.75;6.95;;;;;;;-144.47;71.52;52727.00;4987596;28;20034;-71
2023/06/08 10:21:05;;;;;;;13.73;6.97;;;;;;;-144.47;70.22;52721.03;4968714;28;20029;-72
2023/06/08 10:23:32;;;;;;;11.90;6.80;;;;;;;-144.47;70.29;52721.03;4975361;28;20022;-71
2023/06/08 10:25:58;;;;;;;13.85;7.07;;;;;;;-144.47;70.08;52744.88;4972025;28;20035;-70
2023/06/08 10:28:23;;;;;;;11.85;6.50;;;;;;;-144.47;70.39;52725.00;4968711;28;20023;-72
2023/06/08 10:30:49;;;;;;;11.30;6.90;;;;;;;-144.47;73.05;52721.03;4962948;28;20408;-73
2023/06/08 10:36:09;;;;;;;19.30;8.75;;;;;;;-144.47;75.31;52709.13;4986885;28;20043;-67
2023/06/08 10:38:37;;;;;;;15.10;8.40;;;;;;;-144.47;76.38;52703.16;4990556;28;20023;-69
2023/06/08 10:41:03;;;;;;;20.08;8.88;;;;;;;-144.47;76.76;52699.19;4989386;28;20084;-64
2023/06/08 10:43:29;;;;;;;18.52;8.75;;;;;;;-144.47;76.30;52715.06;4990416;28;20038;-65
2023/06/08 10:45:57;;;;;;;14.23;8.05;;;;;;;-144.47;76.40;52701.19;4989720;28;20568;-64
2023/06/08 10:48:23;;;;;;;17.17;8.23;;;;;;;-144.47;75.48;52742.88;4987141;28;20026;-65
2023/06/08 10:50:50;;;;;;;13.77;7.90;;;;;;;-144.47;72.23;52711.09;4987130;28;20042;-64
2023/06/08 10:53:22;;;;;;;17.08;7.15;;;;;;;-144.47;71.41;52738.91;4986227;28;20066;-65
2023/06/08 10:55:49;;;;;;;14.48;7.57;;;;;;;-144.47;71.71;52719.06;4988376;28;20022;-65
2023/06/08 10:58:19;;;;;;;17.35;8.15;;;;;;;-144.47;71.30;52738.91;4984611;28;20353;-67
2023/06/08 11:00:48;;;;;;;20.83;8.35;;;;;;;-144.47;71.43;52728.97;4988731;28;20077;-66
2023/06/08 11:03:16;;;;;;;12.57;7.30;;;;;;;-144.47;71.68;52715.06;4989967;28;20120;-65
2023/06/08 11:05:48;;;;;;;14.65;7.80;;;;;;;-144.47;69.44;52715.06;4977319;28;20076;-65
2023/06/08 11:08:13;;;;;;;17.70;7.47;;;;;;;-144.47;68.13;52734.94;4983741;28;20122;-66